Time;durP1;ratioP1;P1;durP2;ratioP2;P2;SDS_P1;SDS_P2;PMS_P1;PMS_P2;Temp;Humidity;BMP_temperature;BMP_pressure;BME280_temperature;BME280_humidity;BME280_pressure;Samples;Min_cycle;Max_cycle;Signal;HPM_P1;HPM_P2
2023/06/17 00:02:17;;;;;;;7.13;6.43;;;15.80;99.90;;;;;;4997196;28;20210;-84
2023/06/17 00:04:44;;;;;;;7.88;7.07;;;15.80;99.90;;;;;;4996299;28;20227;-85
2023/06/17 00:07:12;;;;;;;7.82;7.13;;;15.80;99.90;;;;;;4995063;28;20286;-85
2023/06/17 00:09:40;;;;;;;7.72;6.80;;;15.70;99.90;;;;;;4996432;28;20215;-85
2023/06/17 00:12:09;;;;;;;7.05;6.45;;;15.70;99.90;;;;;;5002110;28;20492;-79
2023/06/17 00:14:36;;;;;;;7.30;6.60;;;15.60;99.90;;;;;;4995950;28;20228;-84
2023/06/17 00:17:03;;;;;;;6.27;5.57;;;15.60;99.90;;;;;;4995512;28;20608;-82
2023/06/17 00:19:30;;;;;;;6.57;5.97;;;15.60;99.90;;;;;;4995479;28;20292;-83
2023/06/17 00:21:57;;;;;;;6.13;5.63;;;15.50;99.90;;;;;;4997726;28;20200;-79
2023/06/17 00:24:25;;;;;;;6.45;5.90;;;15.60;99.90;;;;;;4995996;28;20202;-85
2023/06/17 00:26:52;;;;;;;5.88;5.13;;;15.60;99.90;;;;;;4996339;28;20204;-84
2023/06/17 00:29:19;;;;;;;7.60;6.70;;;15.60;99.90;;;;;;4996353;28;20608;-84
2023/06/17 00:31:46;;;;;;;6.53;5.38;;;15.60;99.90;;;;;;5014805;28;20550;-83
2023/06/17 00:34:13;;;;;;;6.97;6.32;;;15.60;99.90;;;;;;5014967;28;20241;-81
2023/06/17 00:36:40;;;;;;;7.22;6.63;;;15.50;99.90;;;;;;5007232;28;20282;-84
2023/06/17 00:39:07;;;;;;;6.90;6.30;;;15.50;99.90;;;;;;4995536;28;20211;-81
2023/06/17 00:41:35;;;;;;;6.43;5.93;;;15.60;99.90;;;;;;4994208;28;20207;-81
2023/06/17 00:44:02;;;;;;;7.70;7.00;;;15.50;99.90;;;;;;4994614;28;20203;-85
2023/06/17 00:46:35;;;;;;;7.63;6.90;;;15.50;99.90;;;;;;4995691;28;20226;-85
2023/06/17 00:49:03;;;;;;;6.45;5.85;;;15.50;99.90;;;;;;4993771;28;20243;-80
2023/06/17 00:51:32;;;;;;;7.20;6.57;;;15.50;99.90;;;;;;5012371;28;20238;-82
2023/06/17 00:53:59;;;;;;;7.60;6.80;;;15.50;99.90;;;;;;5008051;28;20306;-82
2023/06/17 00:56:28;;;;;;;6.70;6.10;;;15.40;99.90;;;;;;4995382;28;20192;-85
2023/06/17 00:58:57;;;;;;;6.30;5.70;;;15.40;99.90;;;;;;4994973;28;20239;-82
2023/06/17 01:01:25;;;;;;;8.68;7.80;;;15.40;99.90;;;;;;5008816;28;20289;-84
2023/06/17 01:03:54;;;;;;;7.00;6.30;;;15.40;99.90;;;;;;5014693;28;20714;-84
2023/06/17 01:06:28;;;;;;;7.40;6.70;;;15.40;99.90;;;;;;5014974;28;20203;-85
2023/06/17 01:09:01;;;;;;;6.78;5.88;;;15.40;99.90;;;;;;5014794;28;20278;-84
2023/06/17 01:11:30;;;;;;;6.75;6.15;;;15.40;99.90;;;;;;5012488;28;20203;-81
2023/06/17 01:14:00;;;;;;;7.30;6.68;;;15.40;99.90;;;;;;5013885;28;20227;-80
2023/06/17 01:16:28;;;;;;;7.43;6.72;;;15.40;99.90;;;;;;5008772;28;20200;-84
2023/06/17 01:18:57;;;;;;;10.33;7.73;;;15.30;99.90;;;;;;4995087;28;20247;-85
2023/06/17 01:21:28;;;;;;;9.27;8.47;;;15.30;99.90;;;;;;4994678;28;20291;-84
2023/06/17 01:23:58;;;;;;;7.82;7.20;;;15.30;99.90;;;;;;4995028;28;20254;-84
2023/06/17 01:26:28;;;;;;;7.40;6.80;;;15.30;99.90;;;;;;4994870;28;20196;-84
2023/06/17 01:28:59;;;;;;;7.65;7.05;;;15.20;99.90;;;;;;4994950;28;20219;-80
2023/06/17 01:31:26;;;;;;;6.90;6.30;;;15.20;99.90;;;;;;4993580;28;20211;-81
2023/06/17 01:33:57;;;;;;;6.68;6.07;;;15.20;99.90;;;;;;4994398;28;20207;-81
2023/06/17 01:36:29;;;;;;;6.13;5.63;;;15.10;99.90;;;;;;4994227;28;20185;-81
2023/06/17 01:39:02;;;;;;;7.72;7.10;;;15.10;99.90;;;;;;4993409;28;20203;-83
2023/06/17 01:41:36;;;;;;;7.35;6.70;;;15.20;99.90;;;;;;4993785;28;20243;-84
2023/06/17 01:44:05;;;;;;;7.18;6.47;;;15.10;99.90;;;;;;4994088;28;20492;-79
2023/06/17 01:46:32;;;;;;;5.97;5.47;;;15.10;99.90;;;;;;4993362;28;20282;-80
2023/06/17 01:49:00;;;;;;;6.73;5.97;;;15.10;99.90;;;;;;4994417;28;20243;-85
2023/06/17 01:51:27;;;;;;;6.57;5.97;;;15.10;99.90;;;;;;4994191;28;20220;-84
2023/06/17 01:53:53;;;;;;;6.43;5.83;;;15.10;99.90;;;;;;4992884;28;20192;-82
2023/06/17 01:56:20;;;;;;;6.30;5.80;;;15.10;99.90;;;;;;4994091;28;20227;-84
2023/06/17 01:58:49;;;;;;;6.47;5.87;;;15.10;99.90;;;;;;4993819;28;20194;-80
2023/06/17 02:01:16;;;;;;;6.40;5.83;;;15.00;99.90;;;;;;4993483;28;20231;-80
2023/06/17 02:03:43;;;;;;;6.40;5.90;;;15.00;99.90;;;;;;5024688;28;20297;-84
2023/06/17 02:06:10;;;;;;;6.13;5.63;;;15.00;99.90;;;;;;5033647;28;20484;-81
2023/06/17 02:08:38;;;;;;;5.57;5.13;;;15.00;99.90;;;;;;5001866;28;20235;-79
2023/06/17 02:11:05;;;;;;;6.13;5.57;;;15.00;99.90;;;;;;4993636;28;20628;-83
2023/06/17 02:13:32;;;;;;;5.97;5.47;;;15.00;99.90;;;;;;4993020;28;20204;-81
2023/06/17 02:16:00;;;;;;;7.93;7.23;;;15.00;99.90;;;;;;4999864;28;20235;-83
2023/06/17 02:18:27;;;;;;;6.90;6.27;;;14.90;99.90;;;;;;5013064;28;20209;-81
2023/06/17 02:20:54;;;;;;;7.97;7.27;;;14.90;99.90;;;;;;4997047;28;20218;-81
2023/06/17 02:23:21;;;;;;;7.03;6.40;;;14.80;99.90;;;;;;4993224;28;20214;-81
2023/06/17 02:25:47;;;;;;;6.63;5.93;;;14.80;99.90;;;;;;4993612;28;20200;-81
2023/06/17 02:28:14;;;;;;;6.13;5.53;;;14.80;99.90;;;;;;4992839;28;20211;-80
2023/06/17 02:30:41;;;;;;;7.33;6.73;;;14.80;99.90;;;;;;4993965;28;20259;-83
2023/06/17 02:33:11;;;;;;;7.17;6.50;;;14.80;99.90;;;;;;4994053;28;20232;-83
2023/06/17 02:35:38;;;;;;;6.43;5.93;;;14.80;99.90;;;;;;4996513;28;20594;-83
2023/06/17 02:38:05;;;;;;;7.10;6.50;;;14.80;99.90;;;;;;4997392;28;20200;-84
2023/06/17 02:40:32;;;;;;;6.93;6.33;;;14.80;99.90;;;;;;5016151;28;20242;-83
2023/06/17 02:42:59;;;;;;;6.77;6.13;;;14.80;99.90;;;;;;5016152;28;20275;-82
2023/06/17 02:45:26;;;;;;;6.60;6.10;;;14.80;99.90;;;;;;5017460;28;20196;-81
2023/06/17 02:47:53;;;;;;;6.57;5.97;;;14.70;99.90;;;;;;5015848;28;20257;-80
2023/06/17 02:50:23;;;;;;;6.77;6.03;;;14.70;99.90;;;;;;5016065;28;20191;-80
2023/06/17 02:52:55;;;;;;;6.93;6.30;;;14.80;99.90;;;;;;5015019;28;20222;-80
2023/06/17 02:55:22;;;;;;;6.68;6.07;;;14.80;99.90;;;;;;5016643;28;20225;-83
2023/06/17 02:57:49;;;;;;;5.73;5.23;;;14.70;99.90;;;;;;5015645;28;20280;-83
2023/06/17 03:00:16;;;;;;;6.70;5.87;;;14.70;99.90;;;;;;5014900;28;20215;-83
2023/06/17 03:02:43;;;;;;;6.60;5.93;;;14.70;99.90;;;;;;4997374;28;20235;-84
2023/06/17 03:05:10;;;;;;;6.20;5.60;;;14.70;99.90;;;;;;4996557;28;20589;-79
2023/06/17 03:07:40;;;;;;;6.90;6.30;;;14.70;99.90;;;;;;4996769;28;20216;-80
2023/06/17 03:10:08;;;;;;;7.10;6.50;;;14.70;99.90;;;;;;4996034;28;20219;-80
2023/06/17 03:12:35;;;;;;;6.73;6.20;;;14.70;99.90;;;;;;4996671;28;20200;-80
2023/06/17 03:15:02;;;;;;;6.50;6.00;;;14.60;99.90;;;;;;4996529;28;20220;-81
2023/06/17 03:17:29;;;;;;;6.87;6.27;;;14.60;99.90;;;;;;4996651;28;20200;-83
2023/06/17 03:19:59;;;;;;;6.73;6.20;;;14.60;99.90;;;;;;5009666;28;20210;-83
2023/06/17 03:22:26;;;;;;;6.80;6.20;;;14.60;99.90;;;;;;5010913;28;20226;-83
2023/06/17 03:24:54;;;;;;;6.87;6.27;;;14.60;99.90;;;;;;4996671;28;20192;-83
2023/06/17 03:27:21;;;;;;;7.53;6.10;;;14.50;99.90;;;;;;5005352;28;20334;-83
2023/06/17 03:29:49;;;;;;;7.03;6.03;;;14.50;99.90;;;;;;5016259;28;20262;-81
2023/06/17 03:32:16;;;;;;;6.37;5.83;;;14.50;99.90;;;;;;5015823;28;20200;-83
2023/06/17 03:34:43;;;;;;;7.13;6.53;;;14.50;99.90;;;;;;5016423;28;20223;-80
2023/06/17 03:37:10;;;;;;;6.87;6.27;;;14.50;99.90;;;;;;5014551;28;20663;-82
2023/06/17 03:39:37;;;;;;;8.73;6.80;;;14.50;99.90;;;;;;5014747;28;20635;-81
2023/06/17 03:42:06;;;;;;;6.20;5.70;;;14.50;99.90;;;;;;5016334;28;20210;-82
2023/06/17 03:44:33;;;;;;;6.17;5.67;;;14.50;99.90;;;;;;5001176;28;20556;-79
2023/06/17 03:47:00;;;;;;;7.20;5.97;;;14.60;99.90;;;;;;4995417;28;20196;-81
2023/06/17 03:49:27;;;;;;;5.87;5.30;;;14.60;99.90;;;;;;4995161;28;20235;-81
2023/06/17 03:51:54;;;;;;;6.67;6.10;;;14.60;99.90;;;;;;4995323;28;20223;-80
2023/06/17 03:54:21;;;;;;;7.67;6.97;;;14.60;99.90;;;;;;4995619;28;20627;-82
2023/06/17 03:56:48;;;;;;;7.83;7.00;;;14.50;99.90;;;;;;4995481;28;20524;-83
2023/06/17 03:59:17;;;;;;;7.83;7.13;;;14.50;99.90;;;;;;4994960;28;20299;-83
2023/06/17 04:01:44;;;;;;;6.70;6.10;;;14.50;99.90;;;;;;4994916;28;20201;-82
2023/06/17 04:04:11;;;;;;;7.20;6.50;;;14.60;99.90;;;;;;4995788;28;20291;-82
2023/06/17 04:06:38;;;;;;;6.67;6.10;;;14.60;99.90;;;;;;4995308;28;20287;-79
2023/06/17 04:09:05;;;;;;;8.13;7.03;;;14.60;99.90;;;;;;4995416;28;20266;-80
2023/06/17 04:11:32;;;;;;;9.03;7.97;;;14.70;99.90;;;;;;4995367;28;20680;-79
2023/06/17 04:13:59;;;;;;;8.37;7.67;;;14.70;99.90;;;;;;4995047;28;20206;-80
2023/06/17 04:16:30;;;;;;;8.93;8.10;;;14.70;99.90;;;;;;4994784;28;20533;-81
2023/06/17 04:18:57;;;;;;;9.70;8.47;;;14.80;99.90;;;;;;4995433;28;20197;-80
2023/06/17 04:21:24;;;;;;;8.97;8.17;;;14.80;99.90;;;;;;4994196;28;20722;-80
2023/06/17 04:23:52;;;;;;;8.90;7.63;;;14.90;99.90;;;;;;4994126;28;20604;-81
2023/06/17 04:26:19;;;;;;;7.57;6.87;;;14.90;99.90;;;;;;4994387;28;20200;-82
2023/06/17 04:28:47;;;;;;;7.23;6.63;;;15.00;99.90;;;;;;4995925;28;20282;-83
2023/06/17 04:31:15;;;;;;;6.78;6.18;;;15.10;99.90;;;;;;4996062;28;20214;-82
2023/06/17 04:33:43;;;;;;;7.23;6.63;;;15.10;99.90;;;;;;4996082;28;20211;-83
2023/06/17 04:36:10;;;;;;;7.70;6.97;;;15.20;99.90;;;;;;4995181;28;20255;-83
2023/06/17 04:38:38;;;;;;;7.20;6.40;;;15.20;99.90;;;;;;4996026;28;20215;-83
2023/06/17 04:41:05;;;;;;;7.73;7.07;;;15.20;99.90;;;;;;4995656;28;20301;-82
2023/06/17 04:43:32;;;;;;;8.07;7.27;;;15.20;99.90;;;;;;4994994;28;20210;-81
2023/06/17 04:46:00;;;;;;;8.37;7.63;;;15.30;99.90;;;;;;5001720;28;20265;-80
2023/06/17 04:48:28;;;;;;;10.03;9.03;;;15.30;99.90;;;;;;5002328;28;20294;-83
2023/06/17 04:50:57;;;;;;;9.43;8.63;;;15.40;99.90;;;;;;4995052;28;20250;-84
2023/06/17 04:53:24;;;;;;;8.80;8.00;;;15.50;99.90;;;;;;4995271;28;20543;-82
2023/06/17 04:55:51;;;;;;;9.75;8.85;;;15.50;99.90;;;;;;4994365;28;20232;-82
2023/06/17 04:58:18;;;;;;;9.38;8.50;;;15.70;99.90;;;;;;4995025;28;20506;-83
2023/06/17 05:00:45;;;;;;;10.32;9.32;;;15.80;99.90;;;;;;4994912;28;20202;-81
2023/06/17 05:03:12;;;;;;;10.30;9.40;;;16.00;99.90;;;;;;4994396;28;20216;-83
2023/06/17 05:05:39;;;;;;;10.68;9.70;;;16.20;99.90;;;;;;4995211;28;20286;-82
2023/06/17 05:08:07;;;;;;;11.40;10.32;;;16.40;99.90;;;;;;4995096;28;20214;-79
2023/06/17 05:10:34;;;;;;;11.30;10.30;;;16.70;99.90;;;;;;4993138;28;20211;-81
2023/06/17 05:13:01;;;;;;;12.13;11.00;;;17.00;99.90;;;;;;4993725;28;20218;-82
2023/06/17 05:15:27;;;;;;;14.55;12.75;;;17.40;99.90;;;;;;4994271;28;20474;-83
2023/06/17 05:17:54;;;;;;;13.40;12.02;;;17.80;99.90;;;;;;4994675;28;20597;-82
2023/06/17 05:20:21;;;;;;;14.75;13.32;;;18.20;99.90;;;;;;4997077;28;20493;-84
2023/06/17 05:22:48;;;;;;;12.48;11.35;;;18.60;99.90;;;;;;5014179;28;20203;-83
2023/06/17 05:25:16;;;;;;;11.57;10.45;;;19.10;99.90;;;;;;4999022;28;20234;-84
2023/06/17 05:27:43;;;;;;;10.20;9.20;;;19.50;99.90;;;;;;4994849;28;20515;-84
2023/06/17 05:30:11;;;;;;;11.50;10.40;;;19.90;99.90;;;;;;4994144;28;20473;-80
2023/06/17 05:32:38;;;;;;;13.07;9.30;;;20.20;99.90;;;;;;4993624;28;20222;-79
2023/06/17 05:35:06;;;;;;;9.88;8.90;;;20.50;99.90;;;;;;4993682;28;20291;-82
2023/06/17 05:37:33;;;;;;;9.02;8.23;;;20.80;99.90;;;;;;4993629;28;20200;-82
2023/06/17 05:39:59;;;;;;;8.63;7.80;;;21.10;99.90;;;;;;4994097;28;20238;-79
2023/06/17 05:42:28;;;;;;;8.05;6.35;;;21.30;99.90;;;;;;5006719;28;20199;-81
2023/06/17 05:44:55;;;;;;;6.40;5.82;;;21.50;99.90;;;;;;5011615;28;20191;-79
2023/06/17 05:47:22;;;;;;;5.90;5.38;;;21.80;99.90;;;;;;5013038;28;20198;-82
2023/06/17 05:49:48;;;;;;;6.00;5.40;;;22.00;99.90;;;;;;5010082;28;20208;-81
2023/06/17 05:52:15;;;;;;;5.57;5.07;;;22.30;99.90;;;;;;4993335;28;20230;-83
2023/06/17 05:54:42;;;;;;;4.28;3.58;;;22.50;99.90;;;;;;4993742;28;20203;-82
2023/06/17 05:57:09;;;;;;;8.90;4.88;;;22.70;99.90;;;;;;4993676;28;20230;-82
2023/06/17 05:59:37;;;;;;;4.22;3.83;;;22.90;99.90;;;;;;4993175;28;20208;-82
2023/06/17 06:02:05;;;;;;;6.63;4.43;;;23.20;99.90;;;;;;4993875;28;20298;-82
2023/06/17 06:04:31;;;;;;;6.28;4.72;;;23.40;99.90;;;;;;4993793;28;20239;-82
2023/06/17 06:06:58;;;;;;;4.47;4.10;;;23.60;99.90;;;;;;5004957;28;20200;-83
2023/06/17 06:09:25;;;;;;;5.05;4.43;;;23.80;99.90;;;;;;4997629;28;20291;-79
2023/06/17 06:11:52;;;;;;;4.57;4.10;;;24.00;99.90;;;;;;4997798;28;20274;-84
2023/06/17 06:14:19;;;;;;;4.38;3.97;;;24.10;99.90;;;;;;4996870;28;20295;-82
2023/06/17 06:16:47;;;;;;;5.38;4.22;;;24.30;99.90;;;;;;5006234;28;20252;-80
2023/06/17 06:19:14;;;;;;;5.38;4.25;;;24.30;99.90;;;;;;5016544;28;20284;-83
2023/06/17 06:21:41;;;;;;;4.05;3.70;;;24.30;75.20;;;;;;5016412;28;20206;-81
2023/06/17 06:24:08;;;;;;;5.95;3.83;;;24.30;41.70;;;;;;4997757;28;20299;-82
2023/06/17 06:26:35;;;;;;;4.70;3.67;;;24.40;70.90;;;;;;4996217;28;20200;-85
2023/06/17 06:29:02;;;;;;;4.35;3.50;;;24.60;42.80;;;;;;4995554;28;20199;-79
2023/06/17 06:31:28;;;;;;;5.57;4.03;;;24.90;42.50;;;;;;4996004;28;20299;-80
2023/06/17 06:33:57;;;;;;;4.30;3.78;;;25.10;7.90;;;;;;4995149;28;20556;-79
2023/06/17 06:36:23;;;;;;;4.00;3.55;;;25.40;1.00;;;;;;4996050;28;20664;-83
2023/06/17 06:38:51;;;;;;;5.15;3.42;;;25.40;1.00;;;;;;4997167;28;20210;-86
2023/06/17 06:41:18;;;;;;;4.47;3.70;;;25.50;1.00;;;;;;4996899;28;20231;-79
2023/06/17 06:43:45;;;;;;;4.30;3.10;;;25.70;1.00;;;;;;4996864;28;20200;-83
2023/06/17 06:46:12;;;;;;;5.30;3.95;;;25.80;1.00;;;;;;5008260;28;20233;-84
2023/06/17 06:48:39;;;;;;;5.25;3.20;;;25.90;1.00;;;;;;5010174;28;20236;-82
2023/06/17 06:51:07;;;;;;;5.43;3.55;;;26.00;1.00;;;;;;4997276;28;20310;-85
2023/06/17 07:01:07;;;;;;;4.05;3.33;;;26.50;1.00;;;;;;4896257;28;20794;-86
2023/06/17 07:03:34;;;;;;;4.40;3.45;;;26.70;1.00;;;;;;5003906;28;20282;-84
2023/06/17 07:06:03;;;;;;;4.88;3.50;;;26.70;99.90;;;;;;4989907;28;20205;-83
2023/06/17 07:08:32;;;;;;;4.72;3.50;;;26.70;99.90;;;;;;4996359;28;20623;-86
2023/06/17 07:10:58;;;;;;;5.25;3.47;;;26.80;99.90;;;;;;5024874;28;20518;-84
2023/06/17 07:13:25;;;;;;;3.88;3.25;;;27.00;56.60;;;;;;5006402;28;20628;-80
2023/06/17 07:15:52;;;;;;;5.00;3.30;;;27.20;1.00;;;;;;5015073;28;20613;-81
2023/06/17 07:18:19;;;;;;;3.45;2.95;;;27.20;1.00;;;;;;5014419;28;20286;-86
2023/06/17 07:20:46;;;;;;;4.50;2.90;;;27.20;1.00;;;;;;4998523;28;20290;-89
2023/06/17 07:23:13;;;;;;;3.35;3.05;;;27.20;1.00;;;;;;5003551;28;20198;-86
2023/06/17 07:25:41;;;;;;;3.35;2.95;;;27.30;99.90;;;;;;5017445;28;20231;-87
2023/06/17 07:28:08;;;;;;;4.47;3.20;;;27.50;1.00;;;;;;4997190;28;20208;-88
2023/06/17 07:30:35;;;;;;;3.25;2.95;;;27.60;1.00;;;;;;4996555;28;20671;-87
2023/06/17 07:33:02;;;;;;;5.75;3.17;;;27.30;1.00;;;;;;4996610;28;20216;-86
2023/06/17 07:35:30;;;;;;;4.55;3.28;;;27.40;1.00;;;;;;4996336;28;20295;-85
2023/06/17 07:37:57;;;;;;;3.65;3.10;;;27.30;1.00;;;;;;4996319;28;20531;-80
2023/06/17 07:40:24;;;;;;;4.75;3.10;;;27.20;1.00;;;;;;4996806;28;20216;-82
2023/06/17 07:42:52;;;;;;;3.42;3.00;;;27.30;1.00;;;;;;4997088;28;20623;-85
2023/06/17 07:45:22;;;;;;;3.35;3.08;;;27.50;98.90;;;;;;4997291;28;20299;-87
2023/06/17 07:47:50;;;;;;;4.68;3.40;;;27.60;99.90;;;;;;5016637;28;20259;-83
2023/06/17 07:50:17;;;;;;;4.63;3.03;;;27.60;99.90;;;;;;5016506;28;20234;-87
2023/06/17 07:52:44;;;;;;;5.00;3.13;;;27.40;99.90;;;;;;5016716;28;20229;-86
2023/06/17 07:55:11;;;;;;;3.35;2.80;;;27.60;1.00;;;;;;5015877;28;20195;-83
2023/06/17 07:57:38;;;;;;;3.42;3.03;;;27.80;99.90;;;;;;5017876;28;20278;-86
2023/06/17 08:00:10;;;;;;;6.90;2.95;;;28.00;99.90;;;;;;5016923;28;20491;-86
2023/06/17 08:02:37;;;;;;;2.88;2.55;;;28.10;1.00;;;;;;5016009;28;20257;-84
2023/06/17 08:05:04;;;;;;;4.47;3.00;;;28.20;99.90;;;;;;5016859;28;20211;-84
2023/06/17 08:07:31;;;;;;;3.22;2.92;;;28.20;1.00;;;;;;5016875;28;20210;-87
2023/06/17 08:09:58;;;;;;;4.05;2.90;;;28.40;63.30;;;;;;5016209;28;20287;-88
2023/06/17 08:12:25;;;;;;;4.55;3.15;;;28.50;1.00;;;;;;5016576;28;20213;-87
2023/06/17 08:14:52;;;;;;;3.33;2.85;;;28.60;99.00;;;;;;4997245;28;20211;-85
2023/06/17 08:17:21;;;;;;;3.17;2.80;;;28.70;1.00;;;;;;4996071;28;20715;-86
2023/06/17 08:19:48;;;;;;;5.13;3.20;;;29.00;1.00;;;;;;4996513;28;20204;-87
2023/06/17 08:22:14;;;;;;;2.72;2.53;;;29.00;1.00;;;;;;4995374;28;20721;-84
2023/06/17 08:24:41;;;;;;;3.25;2.88;;;29.00;1.00;;;;;;4995351;28;20208;-83
2023/06/17 08:27:09;;;;;;;3.15;2.85;;;29.20;1.00;;;;;;4994114;28;20287;-85
2023/06/17 08:29:36;;;;;;;3.17;2.88;;;29.30;1.00;;;;;;5012878;28;20214;-84
2023/06/17 08:32:03;;;;;;;4.07;2.90;;;29.40;1.00;;;;;;5013594;28;20203;-89
2023/06/17 08:34:32;;;;;;;4.45;3.55;;;29.50;1.00;;;;;;5014041;28;20206;-86
2023/06/17 08:37:03;;;;;;;3.20;2.90;;;29.50;1.00;;;;;;5007547;28;20635;-83
2023/06/17 08:39:30;;;;;;;3.75;3.10;;;29.50;1.00;;;;;;5014539;28;20199;-85
2023/06/17 08:41:57;;;;;;;3.10;2.80;;;29.20;1.00;;;;;;5014781;28;20199;-82
2023/06/17 08:44:26;;;;;;;3.35;3.00;;;29.20;99.90;;;;;;5013788;28;20236;-78
2023/06/17 08:46:54;;;;;;;4.35;2.75;;;29.20;1.00;;;;;;5014594;28;20198;-84
2023/06/17 08:49:22;;;;;;;3.47;3.17;;;29.20;1.00;;;;;;4999532;28;20300;-82
2023/06/17 08:51:51;;;;;;;3.65;3.15;;;29.30;1.00;;;;;;4995238;28;20212;-83
2023/06/17 08:54:20;;;;;;;3.92;2.88;;;29.20;1.00;;;;;;4994905;28;20627;-84
2023/06/17 08:56:47;;;;;;;3.03;2.70;;;29.30;1.00;;;;;;4994827;28;20223;-86
2023/06/17 08:59:14;;;;;;;4.28;3.20;;;29.30;1.00;;;;;;4994461;28;20621;-82
2023/06/17 09:01:44;;;;;;;7.13;2.97;;;29.30;1.00;;;;;;4993391;28;20212;-80
2023/06/17 09:04:12;;;;;;;3.67;2.95;;;29.50;1.00;;;;;;4993421;28;20506;-82
2023/06/17 09:06:39;;;;;;;4.32;3.08;;;29.50;1.00;;;;;;5008436;28;20206;-80
2023/06/17 09:09:07;;;;;;;3.60;3.00;;;29.80;1.00;;;;;;5012278;28;20287;-86
2023/06/17 09:11:34;;;;;;;5.13;2.78;;;29.90;1.00;;;;;;5014355;28;20204;-79
2023/06/17 09:14:02;;;;;;;6.70;3.03;;;30.10;1.00;;;;;;5014475;28;20195;-84
2023/06/17 09:16:30;;;;;;;4.80;2.92;;;30.00;99.90;;;;;;5002211;28;20219;-85
2023/06/17 09:18:57;;;;;;;4.05;2.63;;;30.10;1.00;;;;;;4993713;28;20308;-88
2023/06/17 09:21:26;;;;;;;4.70;3.15;;;30.30;99.90;;;;;;4994376;28;20204;-85
2023/06/17 09:23:55;;;;;;;3.85;3.30;;;30.20;99.90;;;;;;4993946;28;20291;-78
2023/06/17 09:26:27;;;;;;;3.40;2.80;;;30.00;99.90;;;;;;4994465;28;20536;-82
2023/06/17 09:28:54;;;;;;;4.78;2.80;;;29.90;99.90;;;;;;4994309;28;20311;-78
2023/06/17 09:31:21;;;;;;;3.22;2.75;;;30.00;99.90;;;;;;4994902;28;20203;-84
2023/06/17 09:33:48;;;;;;;4.05;2.80;;;30.10;99.90;;;;;;5003647;28;20854;-84
2023/06/17 09:36:15;;;;;;;5.00;3.05;;;30.10;93.70;;;;;;5013333;28;20282;-85
2023/06/17 09:38:42;;;;;;;4.10;2.78;;;30.10;99.90;;;;;;5013527;28;20250;-89
2023/06/17 09:41:14;;;;;;;3.67;2.60;;;30.10;82.80;;;;;;5001159;28;20212;-85
2023/06/17 09:43:42;;;;;;;5.00;3.10;;;30.00;99.90;;;;;;4993682;28;20192;-80
2023/06/17 09:46:11;;;;;;;3.72;2.90;;;30.10;99.90;;;;;;4993526;28;20287;-80
2023/06/17 09:48:38;;;;;;;4.15;2.88;;;30.00;99.90;;;;;;4993826;28;20250;-80
2023/06/17 09:51:09;;;;;;;2.80;2.60;;;29.60;99.90;;;;;;4994047;28;20234;-86
2023/06/17 09:53:37;;;;;;;4.47;3.03;;;29.80;99.90;;;;;;4994905;28;20283;-89
2023/06/17 09:56:05;;;;;;;2.95;2.70;;;29.70;68.20;;;;;;4994138;28;20223;-80
2023/06/17 09:58:32;;;;;;;3.75;3.35;;;29.90;99.90;;;;;;4992924;28;20588;-90
2023/06/17 10:01:06;;;;;;;3.83;2.92;;;30.10;99.90;;;;;;4993605;28;20196;-89
2023/06/17 10:03:33;;;;;;;3.10;2.80;;;30.10;99.90;;;;;;4993031;28;20614;-88
2023/06/17 10:06:04;;;;;;;4.00;3.42;;;30.20;69.10;;;;;;4993115;28;20218;-87
2023/06/17 10:08:32;;;;;;;3.88;2.85;;;30.30;31.20;;;;;;4993543;28;20227;-86
2023/06/17 10:11:00;;;;;;;4.15;3.13;;;30.20;48.80;;;;;;4993680;28;20203;-81
2023/06/17 10:13:29;;;;;;;3.10;2.80;;;30.20;95.00;;;;;;4994001;28;20200;-85
2023/06/17 10:15:57;;;;;;;3.53;3.08;;;30.40;92.20;;;;;;4993275;28;20506;-79
2023/06/17 10:18:26;;;;;;;5.20;3.20;;;30.50;59.40;;;;;;4998667;28;20223;-79
2023/06/17 10:20:54;;;;;;;4.47;3.08;;;30.50;81.50;;;;;;5012644;28;20302;-79
2023/06/17 10:23:24;;;;;;;3.53;3.00;;;30.40;92.70;;;;;;5012758;28;20595;-79
2023/06/17 10:25:53;;;;;;;3.70;3.13;;;30.50;88.30;;;;;;5013195;28;20218;-88
2023/06/17 10:28:20;;;;;;;3.72;3.42;;;30.30;97.20;;;;;;5012797;28;20231;-78
2023/06/17 10:30:51;;;;;;;5.00;3.30;;;30.50;99.90;;;;;;4995875;28;20199;-86
2023/06/17 10:33:28;;;;;;;3.25;2.95;;;30.30;73.50;;;;;;5013552;28;20200;-84
2023/06/17 10:36:09;;;;;;;6.57;3.28;;;30.30;66.60;;;;;;4995155;28;20480;-82
2023/06/17 10:38:36;;;;;;;5.32;3.38;;;30.20;66.70;;;;;;5001933;28;20231;-86
2023/06/17 10:41:03;;;;;;;4.50;3.28;;;30.30;99.90;;;;;;5013323;28;20243;-88
2023/06/17 10:43:37;;;;;;;4.20;3.35;;;30.40;61.00;;;;;;5013119;28;20298;-88
2023/06/17 10:46:04;;;;;;;3.25;2.90;;;30.60;63.40;;;;;;5012642;28;20214;-83
2023/06/17 10:48:33;;;;;;;3.95;3.03;;;30.70;78.10;;;;;;5012398;28;20223;-87
2023/06/17 10:51:03;;;;;;;5.28;3.30;;;30.80;46.10;;;;;;5012476;28;20312;-80
2023/06/17 10:53:31;;;;;;;3.63;2.90;;;30.90;46.60;;;;;;5011971;28;20208;-85
2023/06/17 10:56:02;;;;;;;3.55;3.25;;;30.80;15.90;;;;;;5016399;28;20278;-85
2023/06/17 10:58:32;;;;;;;3.00;2.65;;;30.70;19.10;;;;;;5017375;28;20210;-87
2023/06/17 11:01:03;;;;;;;5.03;3.20;;;30.80;20.20;;;;;;5017386;28;20199;-88
2023/06/17 11:03:32;;;;;;;5.10;2.80;;;30.90;10.30;;;;;;5017158;28;20683;-87
2023/06/17 11:06:00;;;;;;;3.55;3.10;;;30.90;4.50;;;;;;5008407;28;20586;-82
2023/06/17 11:08:28;;;;;;;3.47;3.17;;;30.90;2.40;;;;;;4996161;28;20281;-81
2023/06/17 11:11:06;;;;;;;3.35;3.00;;;31.00;4.90;;;;;;4996366;28;20298;-81
2023/06/17 11:13:33;;;;;;;5.20;2.92;;;31.00;4.80;;;;;;4996907;28;20280;-84
2023/06/17 11:16:00;;;;;;;3.70;3.22;;;31.10;4.00;;;;;;4995592;28;20696;-83
2023/06/17 11:18:27;;;;;;;3.40;3.10;;;31.10;5.10;;;;;;4995924;28;20539;-84
2023/06/17 11:20:55;;;;;;;5.40;3.63;;;31.10;4.20;;;;;;4995665;28;20214;-86
2023/06/17 11:23:22;;;;;;;4.28;2.80;;;31.20;1.00;;;;;;4995647;28;20203;-83
2023/06/17 11:25:52;;;;;;;3.38;3.00;;;31.20;12.00;;;;;;4997951;28;20542;-87
2023/06/17 11:28:21;;;;;;;3.70;3.05;;;31.10;10.50;;;;;;4996105;28;20200;-86
2023/06/17 11:30:49;;;;;;;3.20;2.90;;;31.00;5.50;;;;;;4990304;28;20207;-89
2023/06/17 11:33:20;;;;;;;4.03;3.35;;;30.90;1.00;;;;;;5015958;28;20219;-90
2023/06/17 11:35:48;;;;;;;8.50;3.22;;;30.70;1.00;;;;;;5016153;28;20210;-88
2023/06/17 11:38:17;;;;;;;4.30;3.03;;;30.70;1.00;;;;;;5015740;28;20659;-81
2023/06/17 11:40:44;;;;;;;3.95;3.17;;;30.80;1.00;;;;;;5015329;28;20188;-86
2023/06/17 11:43:11;;;;;;;5.93;3.40;;;30.80;1.00;;;;;;5015028;28;20552;-84
2023/06/17 11:45:38;;;;;;;3.88;2.92;;;30.70;1.00;;;;;;5013526;28;20216;-85
2023/06/17 11:48:06;;;;;;;4.65;3.20;;;30.70;1.00;;;;;;5015137;28;20233;-86
2023/06/17 11:50:33;;;;;;;3.10;2.90;;;30.80;1.00;;;;;;5006799;28;20670;-85
2023/06/17 11:53:02;;;;;;;6.00;2.90;;;31.00;1.00;;;;;;5000185;28;20242;-79
2023/06/17 11:55:35;;;;;;;4.35;3.28;;;31.00;1.00;;;;;;5013941;28;20199;-82
2023/06/17 11:58:03;;;;;;;3.30;3.00;;;30.90;1.00;;;;;;5013323;28;20306;-81
2023/06/17 12:00:35;;;;;;;3.50;3.20;;;30.80;1.00;;;;;;5014537;28;20475;-85
2023/06/17 12:03:03;;;;;;;3.35;3.00;;;30.50;1.00;;;;;;5006658;28;20204;-82
2023/06/17 12:05:32;;;;;;;3.13;2.80;;;30.50;1.00;;;;;;5012929;28;20199;-87
2023/06/17 12:08:00;;;;;;;4.25;3.28;;;30.40;1.00;;;;;;5013277;28;20242;-86
2023/06/17 12:10:27;;;;;;;6.65;3.25;;;30.30;1.00;;;;;;5013780;28;20274;-87
2023/06/17 12:12:57;;;;;;;4.22;3.22;;;30.30;1.00;;;;;;5011305;28;20211;-87
2023/06/17 12:15:28;;;;;;;5.60;3.17;;;30.30;1.00;;;;;;5014204;28;20198;-84
2023/06/17 12:17:56;;;;;;;3.90;2.92;;;30.50;1.00;;;;;;5014511;28;20208;-85
2023/06/17 12:20:24;;;;;;;5.13;3.00;;;30.50;1.00;;;;;;5014568;28;20215;-85
2023/06/17 12:22:52;;;;;;;4.03;3.08;;;30.40;1.00;;;;;;5012133;28;20208;-82
2023/06/17 12:25:19;;;;;;;5.03;3.17;;;30.50;7.20;;;;;;5012567;28;20204;-81
2023/06/17 12:27:46;;;;;;;3.45;3.08;;;30.20;4.50;;;;;;5013172;28;20687;-82
2023/06/17 12:30:17;;;;;;;3.67;3.08;;;30.20;2.60;;;;;;5013520;28;20199;-84
2023/06/17 12:32:44;;;;;;;5.90;3.38;;;30.30;1.00;;;;;;5013109;28;20539;-84
2023/06/17 12:35:11;;;;;;;4.47;3.28;;;30.30;1.00;;;;;;5011061;28;20695;-85
2023/06/17 12:37:41;;;;;;;6.53;3.50;;;30.00;1.00;;;;;;5011229;28;20281;-86
2023/06/17 12:40:09;;;;;;;3.45;3.13;;;30.10;1.00;;;;;;4998059;28;20214;-84
2023/06/17 12:42:36;;;;;;;5.00;2.92;;;30.30;1.00;;;;;;4994412;28;20204;-83
2023/06/17 12:45:04;;;;;;;3.72;3.00;;;30.20;1.00;;;;;;4994666;28;20196;-86
2023/06/17 12:47:32;;;;;;;5.57;3.00;;;30.30;1.50;;;;;;4994580;28;20286;-84
2023/06/17 12:49:59;;;;;;;3.65;3.00;;;30.50;3.30;;;;;;4994745;28;20210;-81
2023/06/17 12:52:26;;;;;;;5.15;3.05;;;30.60;4.40;;;;;;4998997;28;20226;-81
2023/06/17 12:55:04;;;;;;;5.28;3.08;;;30.80;8.40;;;;;;4999971;28;20212;-89
2023/06/17 12:57:31;;;;;;;3.47;3.05;;;30.80;6.10;;;;;;4994255;28;20231;-87
2023/06/17 12:59:59;;;;;;;4.10;3.40;;;30.90;18.60;;;;;;4994899;28;20200;-80